Time;durP1;ratioP1;P1;durP2;ratioP2;P2;SDS_P1;SDS_P2;PMS_P1;PMS_P2;Temp;Humidity;BMP_temperature;BMP_pressure;BME280_temperature;BME280_humidity;BME280_pressure;Samples;Min_cycle;Max_cycle;Signal;HPM_P1;HPM_P2
2023/08/18 00:00:21;;;;;;;7.43;6.63;;;;;;;17.70;88.16;101914.53;6279783;22;20035;-74
2023/08/18 00:02:47;;;;;;;7.60;7.10;;;;;;;17.67;88.45;101913.50;6280340;22;20016;-77
2023/08/18 00:05:14;;;;;;;7.30;6.60;;;;;;;17.65;88.92;101911.25;6280687;22;20408;-77
2023/08/18 00:07:41;;;;;;;7.72;7.05;;;;;;;17.67;88.46;101914.25;6279216;22;20012;-76
2023/08/18 00:10:08;;;;;;;7.65;6.95;;;;;;;17.68;88.88;101904.22;6280629;22;20024;-76
2023/08/18 00:12:35;;;;;;;7.47;6.88;;;;;;;17.66;88.58;101901.25;6252753;22;20067;-76
2023/08/18 00:15:02;;;;;;;8.00;6.70;;;;;;;17.63;88.77;101905.56;6280557;22;20016;-76
2023/08/18 00:17:28;;;;;;;7.85;7.15;;;;;;;17.63;88.61;101902.13;6279917;22;20078;-76
2023/08/18 00:19:55;;;;;;;7.80;7.22;;;;;;;17.59;89.08;101896.91;6280157;22;20013;-76
2023/08/18 00:22:22;;;;;;;8.32;7.63;;;;;;;17.58;89.78;101892.00;6279188;22;20023;-76
2023/08/18 00:24:49;;;;;;;7.18;6.68;;;;;;;17.56;89.63;101897.88;6280755;22;20054;-76
2023/08/18 00:27:15;;;;;;;7.63;7.03;;;;;;;17.58;89.36;101895.47;6253167;22;20016;-76
2023/08/18 00:29:42;;;;;;;7.65;7.05;;;;;;;17.57;89.74;101896.66;6252912;22;20013;-76
2023/08/18 00:32:09;;;;;;;7.72;7.13;;;;;;;17.54;89.88;101894.88;6280289;22;20341;-76
2023/08/18 00:34:37;;;;;;;7.70;7.00;;;;;;;17.50;90.45;101891.63;6278933;22;20315;-76
2023/08/18 00:37:03;;;;;;;7.97;7.38;;;;;;;17.51;90.27;101890.41;6280245;22;20019;-76
2023/08/18 00:39:30;;;;;;;7.95;7.32;;;;;;;17.49;90.75;101897.47;6252333;22;20012;-76
2023/08/18 00:41:57;;;;;;;8.30;7.57;;;;;;;17.45;90.69;101894.94;6280116;22;20016;-76
2023/08/18 00:44:23;;;;;;;9.02;8.05;;;;;;;17.44;91.39;101888.06;6279613;22;20044;-76
2023/08/18 00:46:51;;;;;;;7.72;7.10;;;;;;;17.41;91.14;101893.63;6280252;22;20020;-76
2023/08/18 00:49:19;;;;;;;8.18;7.45;;;;;;;17.36;91.73;101897.69;6252478;22;20450;-76
2023/08/18 00:51:46;;;;;;;8.98;8.20;;;;;;;17.32;91.59;101889.03;6252522;22;20048;-76
2023/08/18 00:54:14;;;;;;;8.32;7.53;;;;;;;17.28;92.19;101889.22;6227310;22;20030;-76
2023/08/18 00:56:41;;;;;;;8.48;7.68;;;;;;;17.27;92.82;101895.78;6252107;22;20446;-76
2023/08/18 00:59:08;;;;;;;8.35;7.55;;;;;;;17.29;93.03;101892.63;6252601;22;20078;-76
2023/08/18 01:01:35;;;;;;;9.00;8.20;;;;;;;17.27;93.38;101892.34;6279324;22;20095;-76
2023/08/18 01:04:03;;;;;;;9.15;8.10;;;;;;;17.27;93.08;101898.47;6279336;22;20124;-76
2023/08/18 01:06:31;;;;;;;9.32;8.50;;;;;;;17.25;93.61;101897.44;6279355;22;20450;-76
2023/08/18 01:08:59;;;;;;;9.23;7.78;;;;;;;17.24;94.10;101896.69;6280253;22;20425;-76
2023/08/18 01:11:29;;;;;;;9.20;8.40;;;;;;;17.22;94.21;101904.50;6251772;22;20123;-76
2023/08/18 01:14:14;;;;;;;8.70;7.80;;;;;;;17.22;94.56;101911.81;6252780;22;20020;-76
2023/08/18 01:16:48;;;;;;;8.57;7.78;;;;;;;17.22;94.66;101909.13;6279090;22;20023;-76
2023/08/18 01:19:20;;;;;;;9.60;8.60;;;;;;;17.16;94.98;101910.97;6252122;22;20392;-76
2023/08/18 01:21:51;;;;;;;8.52;7.85;;;;;;;17.13;95.47;101904.56;6252657;22;20020;-77
2023/08/18 01:24:18;;;;;;;8.93;8.02;;;;;;;17.08;96.21;101907.13;6279866;22;20422;-76
2023/08/18 01:26:44;;;;;;;8.02;7.35;;;;;;;17.08;96.44;101901.75;6279916;22;20012;-77
2023/08/18 01:29:11;;;;;;;8.60;7.78;;;;;;;17.04;96.61;101885.03;6252499;22;20040;-75
2023/08/18 01:31:39;;;;;;;8.48;7.78;;;;;;;16.99;96.70;101886.38;6279112;22;20434;-77
2023/08/18 01:34:09;;;;;;;8.70;7.93;;;;;;;16.99;97.42;101879.06;6252557;22;20027;-76
2023/08/18 01:36:39;;;;;;;8.57;7.78;;;;;;;17.00;97.60;101877.88;6253244;22;20481;-76
2023/08/18 01:39:06;;;;;;;11.35;8.10;;;;;;;16.93;97.74;101880.13;6254222;22;20024;-76
2023/08/18 01:41:33;;;;;;;8.15;7.40;;;;;;;16.93;97.67;101872.06;6227910;22;20016;-76
2023/08/18 01:44:05;;;;;;;8.05;7.35;;;;;;;16.93;97.73;101869.38;6254964;22;20098;-76
2023/08/18 01:46:32;;;;;;;7.55;6.95;;;;;;;16.90;97.88;101867.59;6280705;22;20099;-76
2023/08/18 01:48:59;;;;;;;8.15;7.30;;;;;;;16.86;98.61;101859.69;6254054;22;20012;-75
2023/08/18 01:51:26;;;;;;;7.65;7.00;;;;;;;16.90;98.78;101859.53;6227501;22;20799;-75
2023/08/18 01:53:52;;;;;;;7.72;7.03;;;;;;;16.91;98.71;101859.06;6281300;22;20070;-74
2023/08/18 01:56:19;;;;;;;7.40;6.75;;;;;;;16.87;98.12;101861.19;6280241;22;20020;-75
2023/08/18 01:58:47;;;;;;;7.93;6.78;;;;;;;16.83;98.49;101852.53;6253808;22;20020;-75
2023/08/18 02:01:14;;;;;;;7.57;6.90;;;;;;;16.79;98.68;101857.38;6253644;22;20103;-75
2023/08/18 02:03:40;;;;;;;8.73;7.15;;;;;;;16.76;98.57;101858.28;6279733;22;20459;-75
2023/08/18 02:06:08;;;;;;;10.02;7.35;;;;;;;16.72;98.89;101857.69;6281117;22;20017;-74
2023/08/18 02:08:35;;;;;;;7.63;7.03;;;;;;;16.71;99.41;101858.88;6253511;22;20016;-75
2023/08/18 02:11:05;;;;;;;7.30;6.72;;;;;;;16.70;99.50;101852.03;6253449;22;20115;-75
2023/08/18 02:13:33;;;;;;;7.53;6.82;;;;;;;16.66;99.27;101857.56;6228121;22;20021;-74
2023/08/18 02:16:00;;;;;;;7.47;6.95;;;;;;;16.63;99.88;101850.38;6253030;22;20020;-75
2023/08/18 02:18:26;;;;;;;8.48;6.47;;;;;;;16.63;99.71;101855.00;6253253;22;20146;-75
2023/08/18 02:20:55;;;;;;;6.85;6.25;;;;;;;16.63;99.91;101855.00;6253594;22;20048;-75
2023/08/18 02:23:22;;;;;;;6.70;6.05;;;;;;;16.60;99.95;101861.28;6252896;22;20026;-74
2023/08/18 02:25:49;;;;;;;6.78;6.28;;;;;;;16.60;100.00;101850.53;6281137;22;20405;-75
2023/08/18 02:28:18;;;;;;;7.07;6.45;;;;;;;16.58;100.00;101850.25;6280998;22;20012;-74
2023/08/18 02:30:45;;;;;;;6.38;5.78;;;;;;;16.60;100.00;101853.97;6252403;22;20051;-75
2023/08/18 02:33:11;;;;;;;6.65;5.95;;;;;;;16.61;100.00;101854.72;6280816;22;20087;-75
2023/08/18 02:35:43;;;;;;;6.63;5.90;;;;;;;16.60;100.00;101853.22;6252804;22;20386;-75
2023/08/18 02:38:10;;;;;;;6.90;6.30;;;;;;;16.59;100.00;101855.16;6281205;22;20036;-75
2023/08/18 02:40:37;;;;;;;6.63;6.03;;;;;;;16.58;100.00;101853.69;6280447;22;20323;-75
2023/08/18 02:43:03;;;;;;;7.75;6.78;;;;;;;16.59;100.00;101851.72;6281215;22;20051;-75
2023/08/18 02:45:30;;;;;;;7.13;5.65;;;;;;;16.54;100.00;101850.41;6252173;22;20027;-75
2023/08/18 02:47:57;;;;;;;6.53;6.03;;;;;;;16.51;100.00;101842.50;6252701;22;20496;-75
2023/08/18 02:50:24;;;;;;;7.30;6.18;;;;;;;16.51;100.00;101839.81;6280080;22;20012;-75
2023/08/18 02:52:51;;;;;;;7.30;6.70;;;;;;;16.51;100.00;101839.81;6252917;22;20035;-75
2023/08/18 02:55:17;;;;;;;7.53;6.40;;;;;;;16.50;100.00;101839.06;6252800;22;20074;-75
2023/08/18 02:57:44;;;;;;;8.75;6.82;;;;;;;16.45;100.00;101831.63;6280582;22;20074;-74
2023/08/18 03:00:11;;;;;;;7.47;6.78;;;;;;;16.40;100.00;101832.22;6252886;22;20021;-75
2023/08/18 03:02:38;;;;;;;7.07;6.55;;;;;;;16.36;100.00;101826.31;6252746;22;20363;-74
2023/08/18 03:05:05;;;;;;;7.40;6.70;;;;;;;16.31;100.00;101821.53;6280852;22;20530;-75
2023/08/18 03:07:31;;;;;;;7.47;6.78;;;;;;;16.26;100.00;101814.84;6280039;22;20017;-75
2023/08/18 03:09:59;;;;;;;8.10;7.40;;;;;;;16.25;100.00;101818.72;6253246;22;20031;-75
2023/08/18 03:12:26;;;;;;;8.00;6.72;;;;;;;16.26;100.00;101822.16;6279897;22;20020;-75
2023/08/18 03:14:53;;;;;;;10.70;7.07;;;;;;;16.26;100.00;101819.47;6252680;22;20024;-74
2023/08/18 03:17:19;;;;;;;9.93;7.22;;;;;;;16.26;100.00;101822.88;6252276;22;20067;-75
2023/08/18 03:19:46;;;;;;;9.57;7.38;;;;;;;16.24;100.00;101814.53;6280203;22;20446;-75
2023/08/18 03:22:13;;;;;;;7.80;7.07;;;;;;;16.21;100.00;101822.75;6253284;22;20517;-76
2023/08/18 03:24:39;;;;;;;8.05;7.20;;;;;;;16.22;100.00;101816.19;6253008;22;20020;-76
2023/08/18 03:27:06;;;;;;;7.82;7.07;;;;;;;16.24;100.00;101821.84;6252796;22;20120;-76
2023/08/18 03:29:33;;;;;;;8.15;7.35;;;;;;;16.21;100.00;101810.06;6251763;22;20016;-75
2023/08/18 03:32:00;;;;;;;8.23;7.63;;;;;;;16.19;100.00;101809.78;6280286;22;20480;-76
2023/08/18 03:34:26;;;;;;;10.90;8.15;;;;;;;16.18;100.00;101808.28;6253115;22;20012;-76
2023/08/18 03:36:53;;;;;;;8.27;7.35;;;;;;;16.17;100.00;101808.72;6253362;22;20103;-76
2023/08/18 03:39:21;;;;;;;9.48;8.02;;;;;;;16.17;100.00;101800.66;6252448;22;20020;-76
2023/08/18 03:41:47;;;;;;;8.70;7.80;;;;;;;16.15;100.00;101803.06;6253296;22;20024;-76
2023/08/18 03:44:14;;;;;;;8.77;7.90;;;;;;;16.13;100.00;101803.50;6252740;22;20046;-76
2023/08/18 03:46:40;;;;;;;8.55;7.68;;;;;;;16.12;100.00;101796.66;6252687;22;20082;-76
2023/08/18 03:49:07;;;;;;;8.95;8.13;;;;;;;16.11;100.00;101797.09;6253182;22;20024;-76
2023/08/18 03:51:34;;;;;;;8.68;7.88;;;;;;;16.12;100.00;101796.66;6279770;22;20020;-76
2023/08/18 03:54:00;;;;;;;9.25;8.45;;;;;;;16.13;100.00;101795.47;6227949;22;20095;-75
2023/08/18 03:56:31;;;;;;;10.10;8.43;;;;;;;16.13;100.00;101800.09;6252139;22;20020;-76
2023/08/18 03:58:57;;;;;;;8.82;8.02;;;;;;;16.13;100.00;101798.16;6252263;22;20020;-76
2023/08/18 04:01:24;;;;;;;9.45;8.45;;;;;;;16.11;100.00;101794.41;6252743;22;20412;-76
2023/08/18 04:03:50;;;;;;;9.23;8.30;;;;;;;16.07;100.00;101791.88;6252814;22;20388;-76
2023/08/18 04:06:17;;;;;;;9.63;8.68;;;;;;;16.08;100.00;101798.75;6280245;22;20632;-76
2023/08/18 04:08:44;;;;;;;12.60;8.68;;;;;;;16.10;100.00;101801.72;6280575;22;20522;-77
2023/08/18 04:11:11;;;;;;;9.15;8.23;;;;;;;16.12;100.00;101802.03;6252883;22;20071;-76
2023/08/18 04:13:39;;;;;;;9.70;8.73;;;;;;;16.12;100.00;101790.53;6279032;22;20854;-76
2023/08/18 04:16:06;;;;;;;10.95;9.15;;;;;;;16.12;100.00;101793.22;6280506;22;20012;-76
2023/08/18 04:18:33;;;;;;;10.60;9.60;;;;;;;16.10;100.00;101790.25;6252050;22;20020;-75
2023/08/18 04:20:59;;;;;;;13.23;9.30;;;;;;;16.06;100.00;101790.41;6253169;22;20096;-76
2023/08/18 04:23:28;;;;;;;12.32;10.02;;;;;;;16.07;100.00;101791.16;6252252;22;20020;-76
2023/08/18 04:25:56;;;;;;;10.73;9.63;;;;;;;16.08;100.00;101790.69;6252868;22;20055;-76
2023/08/18 04:28:22;;;;;;;12.73;9.55;;;;;;;16.08;100.00;101798.00;6279154;22;20012;-76
2023/08/18 04:30:49;;;;;;;12.85;10.73;;;;;;;16.06;100.00;101793.09;6252741;22;20036;-76
2023/08/18 04:33:40;;;;;;;12.05;10.77;;;;;;;16.06;100.00;101795.78;6252175;22;20020;-76
2023/08/18 04:36:08;;;;;;;12.57;10.10;;;;;;;16.06;100.00;101786.97;6252200;22;20020;-75
2023/08/18 04:38:37;;;;;;;11.98;10.50;;;;;;;16.05;100.00;101788.91;6279446;22;20913;-77
2023/08/18 04:41:09;;;;;;;12.82;11.15;;;;;;;16.06;100.00;101795.78;6251782;22;20020;-74
2023/08/18 04:43:35;;;;;;;13.43;11.73;;;;;;;16.06;100.00;101795.78;6251586;22;20016;-74
2023/08/18 04:46:02;;;;;;;15.45;11.50;;;;;;;16.07;100.00;101788.47;6279948;22;20079;-74
2023/08/18 04:48:31;;;;;;;14.13;11.15;;;;;;;16.05;100.00;101802.34;6251067;22;20099;-75
2023/08/18 04:50:57;;;;;;;14.45;11.68;;;;;;;16.06;100.00;101798.47;6252089;22;20112;-75
2023/08/18 04:53:25;;;;;;;13.15;11.52;;;;;;;16.09;100.00;101799.50;6251399;22;20023;-75
2023/08/18 04:55:52;;;;;;;13.70;11.75;;;;;;;16.10;100.00;101800.97;6251470;22;20055;-74
2023/08/18 04:58:18;;;;;;;14.10;11.98;;;;;;;16.10;100.00;101796.34;6251977;22;20020;-75
2023/08/18 05:00:46;;;;;;;16.60;12.30;;;;;;;16.11;100.00;101800.53;6252618;22;20103;-74
2023/08/18 05:03:14;;;;;;;16.50;12.55;;;;;;;16.11;100.00;101797.84;6252301;22;20016;-74
2023/08/18 05:06:12;;;;;;;13.82;12.43;;;;;;;16.14;100.00;101791.56;6251855;22;20026;-74
2023/08/18 05:08:43;;;;;;;15.05;12.52;;;;;;;16.15;100.00;101789.63;6225571;22;20024;-74
2023/08/18 05:11:11;;;;;;;14.07;12.40;;;;;;;16.14;100.00;101798.88;6252763;22;20052;-75
2023/08/18 05:13:41;;;;;;;14.18;12.75;;;;;;;16.16;100.00;101796.50;6280742;22;20020;-76
2023/08/18 05:16:07;;;;;;;13.57;11.95;;;;;;;16.18;100.00;101786.78;6281434;22;20021;-76
2023/08/18 05:18:35;;;;;;;16.92;13.07;;;;;;;16.19;100.00;101787.53;6253161;22;20016;-77
2023/08/18 05:21:02;;;;;;;18.02;12.50;;;;;;;16.22;100.00;101787.38;6280981;22;20664;-75
2023/08/18 05:23:30;;;;;;;14.60;12.23;;;;;;;16.23;100.00;101786.19;6252975;22;20067;-75
2023/08/18 05:25:57;;;;;;;16.08;13.27;;;;;;;16.25;100.00;101791.09;6280581;22;20111;-76
2023/08/18 05:28:25;;;;;;;21.27;13.70;;;;;;;16.27;100.00;101800.19;6280040;22;20012;-76
2023/08/18 05:30:54;;;;;;;18.77;13.27;;;;;;;16.28;100.00;101800.94;6253417;22;20493;-75
2023/08/18 05:33:21;;;;;;;16.17;13.05;;;;;;;16.29;100.00;101799.75;6280296;22;20075;-76
2023/08/18 05:35:47;;;;;;;14.88;12.88;;;;;;;16.32;100.00;101801.53;6280994;22;20459;-75
2023/08/18 05:38:14;;;;;;;16.08;12.90;;;;;;;16.36;100.00;101804.06;6281126;22;20104;-75
2023/08/18 05:40:46;;;;;;;17.67;13.63;;;;;;;16.37;100.00;101803.59;6280104;22;20092;-76
2023/08/18 05:43:14;;;;;;;20.80;14.00;;;;;;;16.40;100.00;101799.97;6281105;22;20087;-75
2023/08/18 05:45:42;;;;;;;22.10;14.38;;;;;;;16.41;100.00;101789.97;6253416;22;20012;-74
2023/08/18 05:48:09;;;;;;;18.58;13.63;;;;;;;16.38;100.00;101788.97;6280959;22;20020;-76
2023/08/18 05:50:36;;;;;;;30.50;14.45;;;;;;;16.34;100.00;101789.13;6280529;22;20504;-75
2023/08/18 05:53:04;;;;;;;28.10;13.95;;;;;;;16.36;100.00;101790.63;6280911;22;20016;-74
2023/08/18 05:55:31;;;;;;;19.30;13.70;;;;;;;16.37;100.00;101787.47;6279672;22;20092;-75
2023/08/18 05:58:00;;;;;;;18.55;14.55;;;;;;;16.41;100.00;101790.72;6281493;22;20016;-75
2023/08/18 06:00:27;;;;;;;27.98;15.05;;;;;;;16.45;100.00;101793.25;6280842;22;20082;-75
2023/08/18 06:02:54;;;;;;;151.23;24.17;;;;;;;16.51;100.00;101791.44;6281208;22;20016;-75
2023/08/18 06:05:28;;;;;;;18.75;14.05;;;;;;;16.56;100.00;101786.19;6280485;22;20016;-75
2023/08/18 06:07:56;;;;;;;18.33;13.82;;;;;;;16.65;100.00;101794.25;6280542;22;20013;-75
2023/08/18 06:10:23;;;;;;;18.20;13.68;;;;;;;16.72;100.00;101787.03;6280465;22;20457;-75
2023/08/18 06:12:49;;;;;;;20.05;13.23;;;;;;;16.79;100.00;101784.75;6281155;22;20409;-74
2023/08/18 06:15:19;;;;;;;15.20;13.40;;;;;;;16.90;100.00;101778.84;6281055;22;20022;-74
2023/08/18 06:17:46;;;;;;;16.80;13.55;;;;;;;16.95;98.88;101784.34;6281269;22;20020;-75
2023/08/18 06:20:13;;;;;;;16.58;13.57;;;;;;;17.05;98.86;101773.53;6228530;22;20016;-75
2023/08/18 06:22:40;;;;;;;18.60;13.20;;;;;;;17.11;98.11;101769.75;6280049;22;20019;-76
2023/08/18 06:25:11;;;;;;;16.70;13.55;;;;;;;17.15;97.38;101777.66;6253489;22;20016;-74
2023/08/18 06:27:38;;;;;;;18.33;13.38;;;;;;;17.18;96.96;101774.03;6253403;22;20404;-73
2023/08/18 06:30:05;;;;;;;15.80;12.60;;;;;;;17.25;96.69;101765.59;6281265;22;20017;-74
2023/08/18 06:32:32;;;;;;;15.05;13.05;;;;;;;17.25;96.51;101770.97;6253388;22;20024;-73
2023/08/18 06:34:59;;;;;;;18.73;12.35;;;;;;;17.35;96.09;101772.41;6281316;22;20046;-73
2023/08/18 06:37:26;;;;;;;17.25;12.98;;;;;;;17.49;95.38;101776.31;6252917;22;20016;-74
2023/08/18 06:39:53;;;;;;;17.88;12.98;;;;;;;17.58;94.34;101771.59;6281185;22;20032;-75
2023/08/18 06:42:20;;;;;;;26.55;13.98;;;;;;;17.64;94.46;101769.72;6280631;22;20016;-75
2023/08/18 06:44:49;;;;;;;28.40;13.20;;;;;;;17.64;94.43;101769.00;6253705;22;20066;-76
2023/08/18 06:47:15;;;;;;;16.05;13.25;;;;;;;17.70;93.77;101761.78;6281018;22;20013;-76
2023/08/18 06:49:42;;;;;;;14.27;12.77;;;;;;;17.81;93.94;101766.63;6253421;22;20377;-75
2023/08/18 06:52:09;;;;;;;17.88;13.55;;;;;;;17.90;93.08;101761.88;6252863;22;20035;-74
2023/08/18 06:54:36;;;;;;;14.82;12.25;;;;;;;17.96;92.80;101756.59;6252543;22;20016;-74
2023/08/18 06:57:02;;;;;;;15.30;13.23;;;;;;;18.06;92.23;101757.22;6280925;22;20425;-75
2023/08/18 06:59:29;;;;;;;14.77;13.27;;;;;;;18.23;91.46;101747.44;6280233;22;20021;-74
2023/08/18 07:01:55;;;;;;;17.10;12.82;;;;;;;18.44;91.14;101758.97;6280871;22;20016;-75
2023/08/18 07:04:22;;;;;;;14.13;11.05;;;;;;;18.75;89.79;101753.06;6280380;22;20023;-76
2023/08/18 07:06:48;;;;;;;13.15;11.82;;;;;;;19.02;88.19;101751.91;6280482;22;20042;-76
2023/08/18 07:09:15;;;;;;;17.30;11.48;;;;;;;19.22;87.36;101747.19;6280965;22;20454;-76
2023/08/18 07:11:42;;;;;;;19.63;11.93;;;;;;;19.39;85.45;101755.47;6280146;22;20614;-75
2023/08/18 07:14:08;;;;;;;13.75;11.95;;;;;;;19.48;84.81;101751.88;6279073;22;20099;-76
2023/08/18 07:16:35;;;;;;;12.80;11.50;;;;;;;19.54;84.67;101755.41;6252819;22;20016;-77
2023/08/18 07:19:03;;;;;;;15.35;11.10;;;;;;;19.72;84.34;101749.66;6252968;22;20465;-76
2023/08/18 07:21:29;;;;;;;15.38;11.60;;;;;;;19.92;82.55;101751.56;6279288;22;20012;-76
2023/08/18 07:23:56;;;;;;;15.43;11.63;;;;;;;20.14;81.70;101750.94;6280938;22;20095;-76
2023/08/18 07:26:22;;;;;;;13.70;10.40;;;;;;;20.20;81.02;101757.13;6280065;22;20032;-74
2023/08/18 07:28:49;;;;;;;12.70;11.35;;;;;;;20.19;81.35;101767.22;6280550;22;20036;-76
2023/08/18 07:31:17;;;;;;;13.35;11.15;;;;;;;20.13;80.89;101766.44;6280676;22;20012;-76
2023/08/18 07:33:46;;;;;;;14.60;11.35;;;;;;;19.94;81.62;101771.47;6253608;22;20079;-74
2023/08/18 07:36:14;;;;;;;13.68;10.88;;;;;;;19.92;82.01;101770.47;6280241;22;20442;-75
2023/08/18 07:38:40;;;;;;;12.57;11.25;;;;;;;19.88;82.47;101770.69;6279703;22;20016;-75
2023/08/18 07:41:07;;;;;;;12.70;11.35;;;;;;;19.82;82.69;101771.84;6280995;22;20040;-75
2023/08/18 07:43:34;;;;;;;13.43;11.50;;;;;;;19.83;82.86;101767.94;6280119;22;20024;-75
2023/08/18 07:46:00;;;;;;;13.38;11.55;;;;;;;19.84;82.48;101767.44;6280801;22;20095;-74
2023/08/18 07:48:27;;;;;;;19.70;11.95;;;;;;;19.92;82.38;101756.94;6279944;22;20027;-77
2023/08/18 07:50:54;;;;;;;13.60;11.30;;;;;;;20.01;81.93;101766.81;6253190;22;20019;-77
2023/08/18 07:53:21;;;;;;;13.88;11.60;;;;;;;20.15;82.58;101760.53;6280064;22;20027;-74
2023/08/18 07:55:47;;;;;;;13.45;11.60;;;;;;;20.26;81.70;101763.31;6280583;22;20035;-74
2023/08/18 07:58:14;;;;;;;15.07;11.40;;;;;;;20.29;81.20;101771.22;6280758;22;20484;-74
2023/08/18 08:00:42;;;;;;;14.65;11.57;;;;;;;20.30;80.78;101770.00;6280331;22;20535;-74
2023/08/18 08:03:09;;;;;;;15.90;11.65;;;;;;;20.21;80.71;101772.13;6280914;22;20420;-74
2023/08/18 08:05:38;;;;;;;16.33;12.45;;;;;;;20.22;80.99;101765.50;6279482;22;20023;-74
2023/08/18 08:08:06;;;;;;;15.50;11.80;;;;;;;20.35;80.32;101765.09;6253635;22;20020;-74
2023/08/18 08:10:33;;;;;;;13.18;11.77;;;;;;;20.60;80.10;101769.69;6280426;22;20016;-74
2023/08/18 08:12:59;;;;;;;13.70;11.40;;;;;;;20.90;78.88;101772.75;6280379;22;20068;-75
2023/08/18 08:15:26;;;;;;;13.27;11.38;;;;;;;20.90;77.98;101775.47;6279700;22;20047;-74
2023/08/18 08:17:53;;;;;;;14.95;11.80;;;;;;;20.87;78.85;101781.84;6280479;22;20460;-74
2023/08/18 08:20:19;;;;;;;14.30;11.18;;;;;;;20.78;78.81;101780.09;6279275;22;20032;-79
2023/08/18 08:22:48;;;;;;;15.45;11.90;;;;;;;20.72;79.18;101775.91;6253275;22;20557;-77
2023/08/18 08:25:15;;;;;;;14.90;11.65;;;;;;;20.71;79.85;101769.00;6253523;22;20012;-78
2023/08/18 08:27:42;;;;;;;13.23;11.52;;;;;;;20.66;79.42;101773.16;6279488;22;20093;-77
2023/08/18 08:30:11;;;;;;;17.10;11.65;;;;;;;20.69;80.14;101771.47;6280545;22;20016;-78
2023/08/18 08:32:57;;;;;;;14.45;11.98;;;;;;;20.78;80.21;101769.28;6279824;22;20078;-76
2023/08/18 08:35:24;;;;;;;17.23;12.20;;;;;;;20.84;79.15;101767.31;6279692;22;20068;-76
2023/08/18 08:37:54;;;;;;;15.88;11.90;;;;;;;20.96;78.99;101762.69;6280593;22;20021;-77
2023/08/18 08:40:21;;;;;;;13.13;11.73;;;;;;;21.08;78.04;101763.47;6279765;22;20012;-77
2023/08/18 08:42:49;;;;;;;14.32;12.27;;;;;;;21.17;77.62;101757.84;6253250;22;20024;-76
2023/08/18 08:45:16;;;;;;;13.77;12.35;;;;;;;21.43;76.82;101749.53;6253309;22;20425;-77
2023/08/18 08:47:43;;;;;;;19.30;12.05;;;;;;;21.45;76.92;101750.53;6253075;22;20024;-76
2023/08/18 08:50:12;;;;;;;14.65;12.23;;;;;;;21.53;77.05;101754.25;6281445;22;20468;-76
2023/08/18 08:52:39;;;;;;;17.75;12.80;;;;;;;21.64;76.51;101756.94;6253010;22;20031;-77
2023/08/18 08:55:13;;;;;;;17.30;12.15;;;;;;;21.75;76.18;101760.88;6281049;22;20016;-77
2023/08/18 08:57:40;;;;;;;19.73;11.35;;;;;;;21.74;76.04;101756.69;6280594;22;20016;-77
2023/08/18 09:00:09;;;;;;;13.55;12.02;;;;;;;21.65;76.61;101760.38;6281538;22;20095;-78
2023/08/18 09:02:37;;;;;;;15.98;12.75;;;;;;;21.68;76.14;101766.78;6279280;22;20047;-77
2023/08/18 09:05:04;;;;;;;16.45;12.13;;;;;;;21.73;76.18;101766.06;6281018;22;20019;-77
2023/08/18 09:07:30;;;;;;;15.07;12.40;;;;;;;21.91;76.01;101763.59;6280408;22;20429;-75
2023/08/18 09:09:57;;;;;;;17.08;12.18;;;;;;;22.08;76.00;101763.59;6254537;22;20012;-74
2023/08/18 09:12:30;;;;;;;16.73;11.88;;;;;;;22.23;75.39;101766.78;6253092;22;20027;-74
2023/08/18 09:14:59;;;;;;;12.90;10.68;;;;;;;22.26;74.56;101768.50;6281428;22;20416;-74
2023/08/18 09:17:28;;;;;;;16.35;10.98;;;;;;;22.35;75.26;101774.91;6279731;22;20437;-74
2023/08/18 09:19:59;;;;;;;12.00;10.80;;;;;;;22.46;75.29;101772.88;6254243;22;20454;-73
2023/08/18 09:22:27;;;;;;;16.75;11.45;;;;;;;22.63;73.72;101762.72;6281206;22;20019;-73
2023/08/18 09:24:56;;;;;;;13.20;11.07;;;;;;;22.66;72.51;101762.97;6253749;22;20524;-73
2023/08/18 09:27:23;;;;;;;11.98;10.73;;;;;;;22.65;73.01;101756.06;6253683;22;20507;-74
2023/08/18 09:29:50;;;;;;;12.85;11.13;;;;;;;22.72;71.93;101759.00;6254280;22;20442;-73
2023/08/18 09:32:16;;;;;;;13.30;10.77;;;;;;;22.75;72.34;101755.28;6280959;22;20446;-74
2023/08/18 09:34:47;;;;;;;14.23;10.65;;;;;;;22.74;72.40;101761.94;6280429;22;20016;-75
2023/08/18 09:37:16;;;;;;;11.57;9.93;;;;;;;22.85;72.38;101763.88;6281392;22;20024;-74
2023/08/18 09:39:52;;;;;;;18.25;10.90;;;;;;;22.89;71.81;101759.66;6281702;22;20500;-74
2023/08/18 09:42:18;;;;;;;19.10;10.15;;;;;;;22.92;72.19;101766.06;6253874;22;20019;-74
2023/08/18 09:44:45;;;;;;;15.85;10.73;;;;;;;22.98;71.85;101758.63;6254118;22;20024;-73
2023/08/18 09:47:13;;;;;;;11.32;9.95;;;;;;;23.14;71.84;101757.06;6280642;22;20024;-73
2023/08/18 09:49:40;;;;;;;11.75;10.40;;;;;;;23.22;70.85;101761.44;6227966;22;20445;-73
2023/08/18 09:52:08;;;;;;;11.45;10.25;;;;;;;23.31;71.21;101754.25;6280990;22;20018;-73
2023/08/18 09:54:49;;;;;;;11.77;10.43;;;;;;;23.39;70.34;101747.75;6227247;22;20024;-74
2023/08/18 09:57:43;;;;;;;11.73;10.43;;;;;;;23.29;70.90;101749.31;6254215;22;20161;-75
2023/08/18 10:00:11;;;;;;;12.05;10.30;;;;;;;23.19;70.57;101742.72;6253490;22;20458;-74
2023/08/18 10:02:42;;;;;;;11.10;9.75;;;;;;;23.29;70.55;101744.63;6280137;22;20442;-74
2023/08/18 10:05:10;;;;;;;11.80;10.15;;;;;;;23.29;70.76;101741.91;6281121;22;20091;-74
2023/08/18 10:07:37;;;;;;;11.35;10.18;;;;;;;23.39;70.45;101742.34;6280315;22;20024;-74
2023/08/18 10:10:05;;;;;;;10.15;9.23;;;;;;;23.45;70.62;101742.28;6281469;22;20012;-73
2023/08/18 10:12:32;;;;;;;10.80;9.70;;;;;;;23.52;69.83;101739.78;6280462;22;20057;-74
2023/08/18 10:15:00;;;;;;;11.05;9.60;;;;;;;23.59;69.67;101741.22;6280716;22;20087;-74
2023/08/18 10:17:27;;;;;;;12.15;9.50;;;;;;;23.69;69.54;101734.22;6280321;22;20022;-74
2023/08/18 10:19:58;;;;;;;11.43;9.52;;;;;;;23.67;68.59;101730.53;6280628;22;20012;-74
2023/08/18 10:22:28;;;;;;;11.15;9.48;;;;;;;23.72;68.76;101727.75;6280382;22;20039;-75
2023/08/18 10:24:55;;;;;;;10.27;9.27;;;;;;;23.80;68.55;101731.41;6281061;22;20070;-74
2023/08/18 10:27:28;;;;;;;13.68;9.15;;;;;;;23.88;69.50;101731.56;6280592;22;20432;-73
2023/08/18 10:29:57;;;;;;;9.90;9.00;;;;;;;23.89;68.53;101727.63;6280877;22;20023;-75
2023/08/18 10:32:24;;;;;;;10.98;9.35;;;;;;;24.03;67.77;101726.47;6280300;22;20432;-74
2023/08/18 10:34:51;;;;;;;13.43;9.45;;;;;;;24.01;68.50;101739.09;6280812;22;20020;-75
2023/08/18 10:37:21;;;;;;;10.80;9.40;;;;;;;24.00;68.07;101721.31;6280582;22;20107;-75
2023/08/18 10:39:51;;;;;;;10.10;9.07;;;;;;;24.05;67.75;101723.97;6281199;22;20013;-75
2023/08/18 10:42:17;;;;;;;10.57;9.27;;;;;;;24.14;67.89;101720.91;6280732;22;20512;-75
2023/08/18 10:45:21;;;;;;;11.20;9.75;;;;;;;24.34;67.92;101713.56;6280637;22;20016;-74
2023/08/18 10:47:47;;;;;;;11.48;9.77;;;;;;;24.43;66.44;101716.66;6254171;22;20095;-74
2023/08/18 10:50:14;;;;;;;11.95;9.88;;;;;;;24.55;66.43;101703.66;6281003;22;20020;-74
2023/08/18 10:52:41;;;;;;;10.40;9.30;;;;;;;24.83;65.76;101695.84;6280203;22;20022;-73
2023/08/18 10:55:08;;;;;;;11.85;10.10;;;;;;;24.68;66.50;101701.00;6280175;22;20052;-74
2023/08/18 10:57:37;;;;;;;13.05;8.98;;;;;;;24.90;66.39;101699.97;6253065;22;20446;-73
2023/08/18 11:00:11;;;;;;;12.40;9.90;;;;;;;25.11;65.63;101694.75;6280389;22;20016;-73
2023/08/18 11:02:42;;;;;;;11.70;10.18;;;;;;;25.42;64.87;101696.72;6279386;22;20016;-74
2023/08/18 11:05:10;;;;;;;;;;;;;;;25.67;65.38;101694.56;6278755;22;20013;-74
2023/08/18 11:07:37;;;;;;;12.07;9.20;;;;;;;25.61;63.84;101683.00;6252089;22;20408;-74
2023/08/18 11:10:18;;;;;;;12.02;9.10;;;;;;;25.82;62.80;101688.59;6252854;22;20019;-74
2023/08/18 11:12:46;;;;;;;11.27;10.18;;;;;;;25.65;63.51;101688.16;6280449;22;20023;-77
2023/08/18 11:15:13;;;;;;;11.70;9.48;;;;;;;25.55;64.20;101688.56;6253006;22;20024;-78
2023/08/18 11:17:41;;;;;;;12.18;9.38;;;;;;;25.62;63.80;101683.72;6253030;22;20040;-77